sensor_id;sensor_type;location;lat;lon;timestamp;P1;durP1;ratioP1;P2;durP2;ratioP2
39190;SDS011;24916;51.676;6.614;2022-08-19T00:01:33;13.18;;;7.60;;
39190;SDS011;24916;51.676;6.614;2022-08-19T00:03:59;13.73;;;7.88;;
39190;SDS011;24916;51.676;6.614;2022-08-19T00:06:25;10.38;;;7.97;;
39190;SDS011;24916;51.676;6.614;2022-08-19T00:08:51;11.38;;;7.97;;
39190;SDS011;24916;51.676;6.614;2022-08-19T00:11:16;12.65;;;8.68;;
39190;SDS011;24916;51.676;6.614;2022-08-19T00:13:42;11.77;;;7.75;;
39190;SDS011;24916;51.676;6.614;2022-08-19T00:16:07;9.85;;;7.72;;
39190;SDS011;24916;51.676;6.614;2022-08-19T00:18:33;14.20;;;8.38;;
39190;SDS011;24916;51.676;6.614;2022-08-19T00:20:58;13.88;;;8.55;;
39190;SDS011;24916;51.676;6.614;2022-08-19T00:23:24;11.70;;;8.77;;
39190;SDS011;24916;51.676;6.614;2022-08-19T00:25:49;14.07;;;8.70;;
39190;SDS011;24916;51.676;6.614;2022-08-19T00:28:15;12.35;;;7.88;;
39190;SDS011;24916;51.676;6.614;2022-08-19T00:30:40;10.55;;;7.53;;
39190;SDS011;24916;51.676;6.614;2022-08-19T00:33:06;11.80;;;8.13;;
39190;SDS011;24916;51.676;6.614;2022-08-19T00:35:33;11.52;;;7.90;;
39190;SDS011;24916;51.676;6.614;2022-08-19T00:37:58;11.93;;;7.90;;
39190;SDS011;24916;51.676;6.614;2022-08-19T00:40:24;12.40;;;8.13;;
39190;SDS011;24916;51.676;6.614;2022-08-19T00:42:50;12.25;;;8.60;;
39190;SDS011;24916;51.676;6.614;2022-08-19T00:45:19;12.10;;;7.50;;
39190;SDS011;24916;51.676;6.614;2022-08-19T00:47:45;10.77;;;7.80;;
39190;SDS011;24916;51.676;6.614;2022-08-19T00:50:12;11.48;;;8.20;;
39190;SDS011;24916;51.676;6.614;2022-08-19T00:52:38;14.32;;;8.60;;
39190;SDS011;24916;51.676;6.614;2022-08-19T00:55:06;14.20;;;8.93;;
39190;SDS011;24916;51.676;6.614;2022-08-19T00:57:34;13.45;;;8.82;;
39190;SDS011;24916;51.676;6.614;2022-08-19T01:00:00;13.20;;;8.68;;
39190;SDS011;24916;51.676;6.614;2022-08-19T01:02:27;15.77;;;9.30;;
39190;SDS011;24916;51.676;6.614;2022-08-19T01:04:53;15.05;;;9.82;;
39190;SDS011;24916;51.676;6.614;2022-08-19T01:07:18;16.73;;;10.45;;
39190;SDS011;24916;51.676;6.614;2022-08-19T01:09:44;18.00;;;10.90;;
39190;SDS011;24916;51.676;6.614;2022-08-19T01:12:09;16.67;;;10.82;;
39190;SDS011;24916;51.676;6.614;2022-08-19T01:14:35;15.50;;;10.43;;
39190;SDS011;24916;51.676;6.614;2022-08-19T01:17:01;18.42;;;10.93;;
39190;SDS011;24916;51.676;6.614;2022-08-19T01:19:37;14.60;;;9.65;;
39190;SDS011;24916;51.676;6.614;2022-08-19T01:22:18;14.52;;;11.13;;
39190;SDS011;24916;51.676;6.614;2022-08-19T01:24:45;15.75;;;11.07;;
39190;SDS011;24916;51.676;6.614;2022-08-19T01:27:10;14.88;;;10.68;;
39190;SDS011;24916;51.676;6.614;2022-08-19T01:29:36;17.10;;;11.20;;
39190;SDS011;24916;51.676;6.614;2022-08-19T01:32:04;15.68;;;9.75;;
39190;SDS011;24916;51.676;6.614;2022-08-19T01:34:29;15.57;;;10.88;;
39190;SDS011;24916;51.676;6.614;2022-08-19T01:36:55;15.48;;;10.93;;
39190;SDS011;24916;51.676;6.614;2022-08-19T01:39:22;15.70;;;10.82;;
39190;SDS011;24916;51.676;6.614;2022-08-19T01:41:48;16.83;;;11.73;;
39190;SDS011;24916;51.676;6.614;2022-08-19T01:44:13;18.90;;;13.13;;
39190;SDS011;24916;51.676;6.614;2022-08-19T01:46:38;18.42;;;13.00;;
39190;SDS011;24916;51.676;6.614;2022-08-19T01:49:05;18.45;;;13.05;;
39190;SDS011;24916;51.676;6.614;2022-08-19T01:51:30;18.13;;;13.35;;
39190;SDS011;24916;51.676;6.614;2022-08-19T01:53:56;18.90;;;13.85;;
39190;SDS011;24916;51.676;6.614;2022-08-19T01:56:21;21.95;;;15.57;;
39190;SDS011;24916;51.676;6.614;2022-08-19T01:58:52;20.70;;;16.00;;
39190;SDS011;24916;51.676;6.614;2022-08-19T02:01:18;25.52;;;15.40;;
39190;SDS011;24916;51.676;6.614;2022-08-19T02:03:43;20.10;;;13.77;;
39190;SDS011;24916;51.676;6.614;2022-08-19T02:06:09;19.70;;;14.48;;
39190;SDS011;24916;51.676;6.614;2022-08-19T02:08:35;22.20;;;14.32;;
39190;SDS011;24916;51.676;6.614;2022-08-19T02:11:01;19.17;;;14.07;;
39190;SDS011;24916;51.676;6.614;2022-08-19T02:13:26;23.13;;;14.70;;
39190;SDS011;24916;51.676;6.614;2022-08-19T02:15:52;20.02;;;14.60;;
39190;SDS011;24916;51.676;6.614;2022-08-19T02:18:17;20.70;;;14.33;;
39190;SDS011;24916;51.676;6.614;2022-08-19T02:20:43;21.07;;;14.10;;
39190;SDS011;24916;51.676;6.614;2022-08-19T02:23:09;23.02;;;14.35;;
39190;SDS011;24916;51.676;6.614;2022-08-19T02:25:34;19.30;;;13.40;;
39190;SDS011;24916;51.676;6.614;2022-08-19T02:27:59;18.00;;;13.37;;
39190;SDS011;24916;51.676;6.614;2022-08-19T02:30:25;18.65;;;13.50;;
39190;SDS011;24916;51.676;6.614;2022-08-19T02:32:51;19.05;;;14.10;;
39190;SDS011;24916;51.676;6.614;2022-08-19T02:35:16;19.90;;;13.80;;
39190;SDS011;24916;51.676;6.614;2022-08-19T02:37:42;18.23;;;13.00;;
39190;SDS011;24916;51.676;6.614;2022-08-19T02:40:26;20.52;;;13.20;;
39190;SDS011;24916;51.676;6.614;2022-08-19T02:42:52;21.15;;;13.88;;
39190;SDS011;24916;51.676;6.614;2022-08-19T02:45:17;20.85;;;13.27;;
39190;SDS011;24916;51.676;6.614;2022-08-19T02:47:42;20.10;;;13.30;;
39190;SDS011;24916;51.676;6.614;2022-08-19T02:50:08;19.70;;;13.90;;
39190;SDS011;24916;51.676;6.614;2022-08-19T02:52:34;20.40;;;13.65;;
39190;SDS011;24916;51.676;6.614;2022-08-19T02:54:59;22.23;;;14.60;;
39190;SDS011;24916;51.676;6.614;2022-08-19T02:57:25;18.92;;;13.23;;
39190;SDS011;24916;51.676;6.614;2022-08-19T02:59:51;19.35;;;13.77;;
39190;SDS011;24916;51.676;6.614;2022-08-19T03:02:16;19.45;;;13.95;;
39190;SDS011;24916;51.676;6.614;2022-08-19T03:04:41;18.93;;;13.97;;
39190;SDS011;24916;51.676;6.614;2022-08-19T03:07:07;19.92;;;13.77;;
39190;SDS011;24916;51.676;6.614;2022-08-19T03:09:32;19.30;;;13.82;;
39190;SDS011;24916;51.676;6.614;2022-08-19T03:11:58;20.30;;;13.67;;
39190;SDS011;24916;51.676;6.614;2022-08-19T03:14:23;20.83;;;14.43;;
39190;SDS011;24916;51.676;6.614;2022-08-19T03:16:49;22.57;;;14.30;;
39190;SDS011;24916;51.676;6.614;2022-08-19T03:19:16;21.90;;;14.05;;
39190;SDS011;24916;51.676;6.614;2022-08-19T03:21:42;17.90;;;13.20;;
39190;SDS011;24916;51.676;6.614;2022-08-19T03:24:09;19.15;;;12.75;;
39190;SDS011;24916;51.676;6.614;2022-08-19T03:26:37;19.58;;;12.95;;
39190;SDS011;24916;51.676;6.614;2022-08-19T03:29:03;18.42;;;13.13;;
39190;SDS011;24916;51.676;6.614;2022-08-19T03:31:29;16.83;;;12.48;;
39190;SDS011;24916;51.676;6.614;2022-08-19T03:33:55;17.23;;;12.63;;
39190;SDS011;24916;51.676;6.614;2022-08-19T03:36:21;17.30;;;13.20;;
39190;SDS011;24916;51.676;6.614;2022-08-19T03:38:50;19.15;;;13.63;;
39190;SDS011;24916;51.676;6.614;2022-08-19T03:41:20;17.88;;;12.55;;
39190;SDS011;24916;51.676;6.614;2022-08-19T03:43:46;20.17;;;13.10;;
39190;SDS011;24916;51.676;6.614;2022-08-19T03:46:13;18.40;;;13.10;;
39190;SDS011;24916;51.676;6.614;2022-08-19T03:48:39;19.20;;;13.88;;
39190;SDS011;24916;51.676;6.614;2022-08-19T03:51:06;19.27;;;13.20;;
39190;SDS011;24916;51.676;6.614;2022-08-19T03:53:31;21.08;;;13.55;;
39190;SDS011;24916;51.676;6.614;2022-08-19T03:55:57;22.30;;;14.10;;
39190;SDS011;24916;51.676;6.614;2022-08-19T03:58:25;18.00;;;13.57;;
39190;SDS011;24916;51.676;6.614;2022-08-19T04:00:50;18.58;;;13.43;;
39190;SDS011;24916;51.676;6.614;2022-08-19T04:03:16;20.42;;;13.82;;
39190;SDS011;24916;51.676;6.614;2022-08-19T04:05:43;19.35;;;13.60;;
39190;SDS011;24916;51.676;6.614;2022-08-19T04:08:08;21.27;;;13.93;;
39190;SDS011;24916;51.676;6.614;2022-08-19T04:10:36;19.70;;;14.67;;
39190;SDS011;24916;51.676;6.614;2022-08-19T04:13:02;20.45;;;14.73;;
39190;SDS011;24916;51.676;6.614;2022-08-19T04:15:29;21.65;;;14.18;;
39190;SDS011;24916;51.676;6.614;2022-08-19T04:17:58;22.30;;;13.98;;
39190;SDS011;24916;51.676;6.614;2022-08-19T04:20:23;20.40;;;13.27;;
39190;SDS011;24916;51.676;6.614;2022-08-19T04:22:49;21.17;;;13.90;;
39190;SDS011;24916;51.676;6.614;2022-08-19T04:25:14;23.07;;;14.33;;
39190;SDS011;24916;51.676;6.614;2022-08-19T04:27:39;23.65;;;14.90;;
39190;SDS011;24916;51.676;6.614;2022-08-19T04:30:08;23.60;;;16.08;;
39190;SDS011;24916;51.676;6.614;2022-08-19T04:32:33;21.17;;;14.52;;
39190;SDS011;24916;51.676;6.614;2022-08-19T04:35:00;21.92;;;15.32;;
39190;SDS011;24916;51.676;6.614;2022-08-19T04:37:26;22.40;;;13.63;;
39190;SDS011;24916;51.676;6.614;2022-08-19T04:39:51;20.98;;;14.52;;
39190;SDS011;24916;51.676;6.614;2022-08-19T04:42:35;20.17;;;14.35;;
39190;SDS011;24916;51.676;6.614;2022-08-19T04:45:13;17.80;;;12.95;;
39190;SDS011;24916;51.676;6.614;2022-08-19T04:47:40;19.75;;;13.88;;
39190;SDS011;24916;51.676;6.614;2022-08-19T04:50:06;19.67;;;14.30;;
39190;SDS011;24916;51.676;6.614;2022-08-19T04:52:32;25.30;;;14.30;;
39190;SDS011;24916;51.676;6.614;2022-08-19T04:54:58;24.02;;;15.60;;
39190;SDS011;24916;51.676;6.614;2022-08-19T04:57:23;20.23;;;15.38;;
39190;SDS011;24916;51.676;6.614;2022-08-19T04:59:48;22.50;;;14.68;;
39190;SDS011;24916;51.676;6.614;2022-08-19T05:02:14;19.30;;;13.75;;
39190;SDS011;24916;51.676;6.614;2022-08-19T05:04:39;20.75;;;13.98;;
39190;SDS011;24916;51.676;6.614;2022-08-19T05:07:05;18.48;;;13.05;;
39190;SDS011;24916;51.676;6.614;2022-08-19T05:09:30;17.38;;;12.63;;
39190;SDS011;24916;51.676;6.614;2022-08-19T05:11:56;21.20;;;13.32;;
39190;SDS011;24916;51.676;6.614;2022-08-19T05:14:21;19.77;;;12.73;;
39190;SDS011;24916;51.676;6.614;2022-08-19T05:16:48;16.48;;;12.38;;
39190;SDS011;24916;51.676;6.614;2022-08-19T05:19:13;21.90;;;16.85;;
39190;SDS011;24916;51.676;6.614;2022-08-19T05:21:57;20.33;;;14.43;;
39190;SDS011;24916;51.676;6.614;2022-08-19T05:24:40;16.50;;;11.82;;
39190;SDS011;24916;51.676;6.614;2022-08-19T05:27:06;18.88;;;11.88;;
39190;SDS011;24916;51.676;6.614;2022-08-19T05:29:32;16.85;;;12.07;;
39190;SDS011;24916;51.676;6.614;2022-08-19T05:31:59;15.68;;;12.05;;
39190;SDS011;24916;51.676;6.614;2022-08-19T05:34:25;17.20;;;13.07;;
39190;SDS011;24916;51.676;6.614;2022-08-19T05:36:52;17.55;;;11.65;;
39190;SDS011;24916;51.676;6.614;2022-08-19T05:39:22;17.85;;;12.00;;
39190;SDS011;24916;51.676;6.614;2022-08-19T05:41:49;19.80;;;13.27;;
39190;SDS011;24916;51.676;6.614;2022-08-19T05:44:14;18.10;;;13.32;;
39190;SDS011;24916;51.676;6.614;2022-08-19T05:46:40;24.58;;;17.15;;
39190;SDS011;24916;51.676;6.614;2022-08-19T05:49:07;27.65;;;19.10;;
39190;SDS011;24916;51.676;6.614;2022-08-19T05:51:33;23.33;;;16.73;;
39190;SDS011;24916;51.676;6.614;2022-08-19T05:53:59;24.40;;;17.52;;
39190;SDS011;24916;51.676;6.614;2022-08-19T05:56:24;25.35;;;17.27;;
39190;SDS011;24916;51.676;6.614;2022-08-19T05:58:50;22.50;;;16.67;;
39190;SDS011;24916;51.676;6.614;2022-08-19T06:01:16;21.77;;;16.58;;
39190;SDS011;24916;51.676;6.614;2022-08-19T06:03:41;20.25;;;15.95;;
39190;SDS011;24916;51.676;6.614;2022-08-19T06:06:07;22.25;;;14.63;;
39190;SDS011;24916;51.676;6.614;2022-08-19T06:08:34;21.67;;;13.45;;
39190;SDS011;24916;51.676;6.614;2022-08-19T06:11:11;20.05;;;13.98;;
39190;SDS011;24916;51.676;6.614;2022-08-19T06:13:37;24.95;;;13.63;;
39190;SDS011;24916;51.676;6.614;2022-08-19T06:16:02;18.53;;;12.17;;
39190;SDS011;24916;51.676;6.614;2022-08-19T06:18:27;23.00;;;12.55;;
39190;SDS011;24916;51.676;6.614;2022-08-19T06:20:52;18.33;;;13.07;;
39190;SDS011;24916;51.676;6.614;2022-08-19T06:23:18;21.47;;;14.10;;
39190;SDS011;24916;51.676;6.614;2022-08-19T06:25:45;16.35;;;12.63;;
39190;SDS011;24916;51.676;6.614;2022-08-19T06:28:10;22.98;;;13.40;;
39190;SDS011;24916;51.676;6.614;2022-08-19T06:30:36;20.75;;;14.15;;
39190;SDS011;24916;51.676;6.614;2022-08-19T06:33:02;29.08;;;13.35;;
39190;SDS011;24916;51.676;6.614;2022-08-19T06:35:27;18.42;;;13.82;;
39190;SDS011;24916;51.676;6.614;2022-08-19T06:37:54;18.75;;;14.45;;
39190;SDS011;24916;51.676;6.614;2022-08-19T06:40:19;22.30;;;16.60;;
39190;SDS011;24916;51.676;6.614;2022-08-19T06:42:44;21.50;;;14.73;;
39190;SDS011;24916;51.676;6.614;2022-08-19T06:45:10;22.93;;;15.03;;
39190;SDS011;24916;51.676;6.614;2022-08-19T06:47:35;22.23;;;15.57;;
39190;SDS011;24916;51.676;6.614;2022-08-19T06:50:01;21.63;;;15.13;;
39190;SDS011;24916;51.676;6.614;2022-08-19T06:52:37;25.10;;;15.77;;
39190;SDS011;24916;51.676;6.614;2022-08-19T06:55:04;26.33;;;17.23;;
39190;SDS011;24916;51.676;6.614;2022-08-19T06:57:30;23.48;;;19.30;;
39190;SDS011;24916;51.676;6.614;2022-08-19T06:59:57;28.30;;;19.75;;
39190;SDS011;24916;51.676;6.614;2022-08-19T07:02:22;28.92;;;20.27;;
39190;SDS011;24916;51.676;6.614;2022-08-19T07:04:51;31.80;;;22.48;;
39190;SDS011;24916;51.676;6.614;2022-08-19T07:07:16;30.98;;;21.20;;
39190;SDS011;24916;51.676;6.614;2022-08-19T07:09:42;26.87;;;19.80;;
39190;SDS011;24916;51.676;6.614;2022-08-19T07:12:09;26.27;;;19.55;;
39190;SDS011;24916;51.676;6.614;2022-08-19T07:14:34;29.90;;;20.70;;
39190;SDS011;24916;51.676;6.614;2022-08-19T07:17:03;29.27;;;21.55;;
39190;SDS011;24916;51.676;6.614;2022-08-19T07:19:29;27.92;;;20.90;;
39190;SDS011;24916;51.676;6.614;2022-08-19T07:21:54;28.37;;;21.27;;
39190;SDS011;24916;51.676;6.614;2022-08-19T07:24:21;26.42;;;20.35;;
39190;SDS011;24916;51.676;6.614;2022-08-19T07:26:48;27.77;;;19.85;;
39190;SDS011;24916;51.676;6.614;2022-08-19T07:29:14;26.27;;;20.55;;
39190;SDS011;24916;51.676;6.614;2022-08-19T07:31:41;29.25;;;20.23;;
39190;SDS011;24916;51.676;6.614;2022-08-19T07:34:08;27.55;;;20.33;;
39190;SDS011;24916;51.676;6.614;2022-08-19T07:36:34;29.45;;;19.98;;
39190;SDS011;24916;51.676;6.614;2022-08-19T07:39:00;29.95;;;19.83;;
39190;SDS011;24916;51.676;6.614;2022-08-19T07:41:27;26.42;;;19.45;;
39190;SDS011;24916;51.676;6.614;2022-08-19T07:43:53;30.42;;;21.83;;
39190;SDS011;24916;51.676;6.614;2022-08-19T07:46:19;27.23;;;19.02;;
39190;SDS011;24916;51.676;6.614;2022-08-19T07:48:45;28.05;;;19.35;;
39190;SDS011;24916;51.676;6.614;2022-08-19T07:51:14;25.70;;;18.67;;
39190;SDS011;24916;51.676;6.614;2022-08-19T07:53:40;23.20;;;18.23;;
39190;SDS011;24916;51.676;6.614;2022-08-19T07:56:06;22.75;;;17.73;;
39190;SDS011;24916;51.676;6.614;2022-08-19T07:58:32;21.58;;;16.80;;
39190;SDS011;24916;51.676;6.614;2022-08-19T08:00:58;21.42;;;15.73;;
39190;SDS011;24916;51.676;6.614;2022-08-19T08:03:24;22.60;;;17.30;;
39190;SDS011;24916;51.676;6.614;2022-08-19T08:06:09;22.27;;;15.95;;
39190;SDS011;24916;51.676;6.614;2022-08-19T08:08:53;24.50;;;16.10;;
39190;SDS011;24916;51.676;6.614;2022-08-19T08:11:59;21.10;;;16.08;;
39190;SDS011;24916;51.676;6.614;2022-08-19T08:14:24;22.55;;;15.98;;
39190;SDS011;24916;51.676;6.614;2022-08-19T08:16:49;20.02;;;15.60;;
39190;SDS011;24916;51.676;6.614;2022-08-19T08:19:16;20.67;;;14.73;;
39190;SDS011;24916;51.676;6.614;2022-08-19T08:21:42;21.70;;;14.77;;
39190;SDS011;24916;51.676;6.614;2022-08-19T08:24:07;22.00;;;15.88;;
39190;SDS011;24916;51.676;6.614;2022-08-19T08:26:32;20.13;;;14.48;;
39190;SDS011;24916;51.676;6.614;2022-08-19T08:28:58;20.50;;;15.52;;
39190;SDS011;24916;51.676;6.614;2022-08-19T08:31:23;23.77;;;17.53;;
39190;SDS011;24916;51.676;6.614;2022-08-19T08:33:49;24.17;;;16.85;;
39190;SDS011;24916;51.676;6.614;2022-08-19T08:36:14;23.17;;;15.93;;
39190;SDS011;24916;51.676;6.614;2022-08-19T08:38:41;21.58;;;15.60;;
39190;SDS011;24916;51.676;6.614;2022-08-19T08:43:51;23.17;;;16.70;;
39190;SDS011;24916;51.676;6.614;2022-08-19T08:46:20;22.00;;;15.43;;
39190;SDS011;24916;51.676;6.614;2022-08-19T08:51:36;20.98;;;14.13;;
39190;SDS011;24916;51.676;6.614;2022-08-19T08:54:04;20.13;;;14.45;;
39190;SDS011;24916;51.676;6.614;2022-08-19T08:56:31;23.02;;;15.55;;
39190;SDS011;24916;51.676;6.614;2022-08-19T09:01:22;22.30;;;15.50;;
39190;SDS011;24916;51.676;6.614;2022-08-19T09:03:47;21.17;;;15.07;;
39190;SDS011;24916;51.676;6.614;2022-08-19T09:16:52;18.23;;;14.10;;
39190;SDS011;24916;51.676;6.614;2022-08-19T09:19:17;29.97;;;22.37;;
39190;SDS011;24916;51.676;6.614;2022-08-19T09:21:42;22.50;;;14.63;;
39190;SDS011;24916;51.676;6.614;2022-08-19T09:24:08;24.27;;;15.07;;
39190;SDS011;24916;51.676;6.614;2022-08-19T09:26:33;18.97;;;14.07;;
39190;SDS011;24916;51.676;6.614;2022-08-19T09:28:59;17.58;;;13.10;;
39190;SDS011;24916;51.676;6.614;2022-08-19T09:31:28;19.58;;;14.00;;
39190;SDS011;24916;51.676;6.614;2022-08-19T09:33:54;20.42;;;13.88;;
39190;SDS011;24916;51.676;6.614;2022-08-19T09:36:23;20.80;;;15.30;;
39190;SDS011;24916;51.676;6.614;2022-08-19T09:38:49;24.15;;;15.00;;
39190;SDS011;24916;51.676;6.614;2022-08-19T09:41:16;20.63;;;15.02;;
39190;SDS011;24916;51.676;6.614;2022-08-19T09:43:43;20.35;;;14.23;;
39190;SDS011;24916;51.676;6.614;2022-08-19T09:46:09;20.40;;;14.50;;
39190;SDS011;24916;51.676;6.614;2022-08-19T09:48:37;20.42;;;13.57;;
39190;SDS011;24916;51.676;6.614;2022-08-19T09:51:07;20.33;;;14.45;;
39190;SDS011;24916;51.676;6.614;2022-08-19T09:53:33;23.85;;;17.77;;
39190;SDS011;24916;51.676;6.614;2022-08-19T09:55:59;22.25;;;16.52;;
39190;SDS011;24916;51.676;6.614;2022-08-19T09:58:24;22.60;;;15.63;;
39190;SDS011;24916;51.676;6.614;2022-08-19T10:00:53;23.67;;;17.27;;
39190;SDS011;24916;51.676;6.614;2022-08-19T10:03:18;22.75;;;14.63;;
39190;SDS011;24916;51.676;6.614;2022-08-19T10:05:43;25.13;;;18.53;;
39190;SDS011;24916;51.676;6.614;2022-08-19T10:08:19;26.25;;;18.98;;
39190;SDS011;24916;51.676;6.614;2022-08-19T10:10:45;24.45;;;18.25;;
39190;SDS011;24916;51.676;6.614;2022-08-19T10:13:11;24.27;;;18.08;;
39190;SDS011;24916;51.676;6.614;2022-08-19T10:15:36;22.05;;;16.60;;
39190;SDS011;24916;51.676;6.614;2022-08-19T10:18:04;22.17;;;16.52;;
39190;SDS011;24916;51.676;6.614;2022-08-19T10:20:29;21.35;;;16.08;;
39190;SDS011;24916;51.676;6.614;2022-08-19T10:22:55;22.25;;;16.10;;
39190;SDS011;24916;51.676;6.614;2022-08-19T10:25:20;23.13;;;16.10;;
39190;SDS011;24916;51.676;6.614;2022-08-19T10:27:45;23.23;;;14.70;;
39190;SDS011;24916;51.676;6.614;2022-08-19T10:30:10;17.77;;;14.10;;
39190;SDS011;24916;51.676;6.614;2022-08-19T10:32:36;16.60;;;12.15;;
39190;SDS011;24916;51.676;6.614;2022-08-19T10:35:02;14.80;;;11.23;;
39190;SDS011;24916;51.676;6.614;2022-08-19T10:37:28;13.80;;;9.45;;
39190;SDS011;24916;51.676;6.614;2022-08-19T10:39:55;16.25;;;10.05;;
39190;SDS011;24916;51.676;6.614;2022-08-19T10:42:20;11.57;;;9.07;;
39190;SDS011;24916;51.676;6.614;2022-08-19T10:44:46;10.63;;;6.97;;
39190;SDS011;24916;51.676;6.614;2022-08-19T10:47:15;13.68;;;7.95;;
39190;SDS011;24916;51.676;6.614;2022-08-19T10:49:40;10.60;;;8.30;;
39190;SDS011;24916;51.676;6.614;2022-08-19T10:52:24;10.48;;;7.32;;
39190;SDS011;24916;51.676;6.614;2022-08-19T10:54:59;14.00;;;8.25;;
39190;SDS011;24916;51.676;6.614;2022-08-19T10:57:43;11.68;;;8.23;;
39190;SDS011;24916;51.676;6.614;2022-08-19T11:00:08;21.77;;;13.57;;
39190;SDS011;24916;51.676;6.614;2022-08-19T11:02:33;7.40;;;5.25;;
39190;SDS011;24916;51.676;6.614;2022-08-19T11:04:59;6.73;;;4.27;;
39190;SDS011;24916;51.676;6.614;2022-08-19T11:07:24;8.37;;;5.10;;
39190;SDS011;24916;51.676;6.614;2022-08-19T11:09:51;9.95;;;5.50;;
39190;SDS011;24916;51.676;6.614;2022-08-19T11:12:16;8.07;;;4.70;;
39190;SDS011;24916;51.676;6.614;2022-08-19T11:14:42;9.45;;;6.07;;
39190;SDS011;24916;51.676;6.614;2022-08-19T11:17:07;10.33;;;5.77;;
39190;SDS011;24916;51.676;6.614;2022-08-19T11:19:32;8.90;;;6.60;;
39190;SDS011;24916;51.676;6.614;2022-08-19T11:21:58;10.77;;;6.72;;
39190;SDS011;24916;51.676;6.614;2022-08-19T11:24:26;10.13;;;6.82;;
39190;SDS011;24916;51.676;6.614;2022-08-19T11:26:53;9.30;;;6.78;;
39190;SDS011;24916;51.676;6.614;2022-08-19T11:29:23;8.80;;;6.50;;
39190;SDS011;24916;51.676;6.614;2022-08-19T11:31:52;10.32;;;6.82;;
39190;SDS011;24916;51.676;6.614;2022-08-19T11:34:19;10.07;;;7.20;;
39190;SDS011;24916;51.676;6.614;2022-08-19T11:36:45;12.60;;;7.13;;
39190;SDS011;24916;51.676;6.614;2022-08-19T11:39:13;9.15;;;5.50;;
39190;SDS011;24916;51.676;6.614;2022-08-19T11:41:38;15.15;;;10.25;;
39190;SDS011;24916;51.676;6.614;2022-08-19T11:44:04;12.97;;;6.67;;
39190;SDS011;24916;51.676;6.614;2022-08-19T11:46:30;15.80;;;10.50;;
39190;SDS011;24916;51.676;6.614;2022-08-19T11:48:59;7.88;;;5.65;;
39190;SDS011;24916;51.676;6.614;2022-08-19T11:51:25;13.45;;;6.60;;
39190;SDS011;24916;51.676;6.614;2022-08-19T11:53:51;11.18;;;6.15;;
39190;SDS011;24916;51.676;6.614;2022-08-19T11:56:18;8.88;;;4.90;;
39190;SDS011;24916;51.676;6.614;2022-08-19T11:58:43;9.27;;;5.07;;
39190;SDS011;24916;51.676;6.614;2022-08-19T12:01:09;9.13;;;5.63;;
39190;SDS011;24916;51.676;6.614;2022-08-19T12:03:36;8.20;;;4.50;;
39190;SDS011;24916;51.676;6.614;2022-08-19T12:06:05;6.80;;;4.43;;
39190;SDS011;24916;51.676;6.614;2022-08-19T12:08:31;8.70;;;5.63;;
39190;SDS011;24916;51.676;6.614;2022-08-19T12:10:56;7.23;;;5.20;;
39190;SDS011;24916;51.676;6.614;2022-08-19T12:13:21;7.60;;;4.53;;
39190;SDS011;24916;51.676;6.614;2022-08-19T12:15:47;8.80;;;5.33;;
39190;SDS011;24916;51.676;6.614;2022-08-19T12:18:12;7.43;;;4.40;;
39190;SDS011;24916;51.676;6.614;2022-08-19T12:20:41;10.15;;;7.18;;
39190;SDS011;24916;51.676;6.614;2022-08-19T12:23:07;8.02;;;3.83;;
39190;SDS011;24916;51.676;6.614;2022-08-19T12:25:34;7.10;;;4.25;;
39190;SDS011;24916;51.676;6.614;2022-08-19T12:28:00;8.00;;;4.63;;
39190;SDS011;24916;51.676;6.614;2022-08-19T12:30:25;7.95;;;4.80;;
39190;SDS011;24916;51.676;6.614;2022-08-19T12:32:51;5.38;;;3.83;;
39190;SDS011;24916;51.676;6.614;2022-08-19T12:35:16;7.27;;;4.03;;
39190;SDS011;24916;51.676;6.614;2022-08-19T12:37:42;6.88;;;4.22;;
39190;SDS011;24916;51.676;6.614;2022-08-19T12:40:09;7.82;;;4.53;;
39190;SDS011;24916;51.676;6.614;2022-08-19T12:42:36;6.43;;;4.38;;
39190;SDS011;24916;51.676;6.614;2022-08-19T12:45:02;7.15;;;5.57;;
39190;SDS011;24916;51.676;6.614;2022-08-19T12:47:27;8.38;;;5.57;;
39190;SDS011;24916;51.676;6.614;2022-08-19T12:49:53;8.87;;;5.60;;
39190;SDS011;24916;51.676;6.614;2022-08-19T12:52:19;8.85;;;5.90;;
39190;SDS011;24916;51.676;6.614;2022-08-19T12:54:46;10.32;;;7.40;;
39190;SDS011;24916;51.676;6.614;2022-08-19T12:57:11;11.70;;;6.68;;
39190;SDS011;24916;51.676;6.614;2022-08-19T12:59:37;9.98;;;6.68;;
39190;SDS011;24916;51.676;6.614;2022-08-19T13:02:03;9.75;;;8.18;;
39190;SDS011;24916;51.676;6.614;2022-08-19T13:04:31;10.48;;;8.07;;
39190;SDS011;24916;51.676;6.614;2022-08-19T13:06:56;9.15;;;7.38;;
39190;SDS011;24916;51.676;6.614;2022-08-19T13:09:22;14.00;;;9.02;;
39190;SDS011;24916;51.676;6.614;2022-08-19T13:11:47;9.70;;;7.87;;
39190;SDS011;24916;51.676;6.614;2022-08-19T13:14:12;10.97;;;7.73;;
39190;SDS011;24916;51.676;6.614;2022-08-19T13:16:38;10.20;;;7.80;;
39190;SDS011;24916;51.676;6.614;2022-08-19T13:19:03;12.63;;;9.60;;
39190;SDS011;24916;51.676;6.614;2022-08-19T13:21:30;12.77;;;8.73;;
39190;SDS011;24916;51.676;6.614;2022-08-19T13:23:55;14.75;;;9.15;;
39190;SDS011;24916;51.676;6.614;2022-08-19T13:26:21;12.30;;;8.75;;
39190;SDS011;24916;51.676;6.614;2022-08-19T13:28:46;10.10;;;7.50;;
39190;SDS011;24916;51.676;6.614;2022-08-19T13:31:32;15.10;;;8.93;;
39190;SDS011;24916;51.676;6.614;2022-08-19T13:34:18;14.02;;;9.57;;
39190;SDS011;24916;51.676;6.614;2022-08-19T13:36:45;13.95;;;10.07;;
39190;SDS011;24916;51.676;6.614;2022-08-19T13:39:10;11.30;;;8.03;;
39190;SDS011;24916;51.676;6.614;2022-08-19T13:41:36;14.57;;;8.97;;
39190;SDS011;24916;51.676;6.614;2022-08-19T13:44:02;11.02;;;8.80;;
39190;SDS011;24916;51.676;6.614;2022-08-19T13:46:27;13.60;;;9.13;;
39190;SDS011;24916;51.676;6.614;2022-08-19T13:48:54;14.30;;;9.80;;
39190;SDS011;24916;51.676;6.614;2022-08-19T13:51:19;10.52;;;7.95;;
39190;SDS011;24916;51.676;6.614;2022-08-19T13:53:44;11.03;;;8.07;;
39190;SDS011;24916;51.676;6.614;2022-08-19T13:56:11;13.27;;;8.77;;
39190;SDS011;24916;51.676;6.614;2022-08-19T13:58:37;14.65;;;8.60;;
39190;SDS011;24916;51.676;6.614;2022-08-19T14:01:03;9.82;;;7.75;;
39190;SDS011;24916;51.676;6.614;2022-08-19T14:03:28;14.80;;;10.55;;
39190;SDS011;24916;51.676;6.614;2022-08-19T14:05:53;15.20;;;12.10;;
39190;SDS011;24916;51.676;6.614;2022-08-19T14:08:19;11.37;;;7.23;;
39190;SDS011;24916;51.676;6.614;2022-08-19T14:10:44;11.05;;;6.53;;
39190;SDS011;24916;51.676;6.614;2022-08-19T14:13:12;12.55;;;7.05;;
39190;SDS011;24916;51.676;6.614;2022-08-19T14:15:38;10.70;;;7.05;;
39190;SDS011;24916;51.676;6.614;2022-08-19T14:18:03;10.57;;;7.97;;
39190;SDS011;24916;51.676;6.614;2022-08-19T14:20:28;12.30;;;8.20;;
39190;SDS011;24916;51.676;6.614;2022-08-19T14:22:54;12.77;;;8.43;;
39190;SDS011;24916;51.676;6.614;2022-08-19T14:25:23;10.18;;;7.00;;
39190;SDS011;24916;51.676;6.614;2022-08-19T14:27:49;15.25;;;11.15;;
39190;SDS011;24916;51.676;6.614;2022-08-19T14:30:15;13.73;;;8.70;;
39190;SDS011;24916;51.676;6.614;2022-08-19T14:32:42;14.98;;;9.10;;
39190;SDS011;24916;51.676;6.614;2022-08-19T14:35:10;18.05;;;13.25;;
39190;SDS011;24916;51.676;6.614;2022-08-19T14:37:38;14.73;;;9.38;;
39190;SDS011;24916;51.676;6.614;2022-08-19T14:40:03;14.27;;;9.52;;
39190;SDS011;24916;51.676;6.614;2022-08-19T14:42:28;14.63;;;8.85;;
39190;SDS011;24916;51.676;6.614;2022-08-19T14:44:57;11.43;;;7.50;;